Terminal Aerodrome Forecast
Issued by NWS

Home | Current Version | Previous Version | Text Only | Print | Product List | Glossary On
Versions: 1 2 3 4 5 6 7 8 9 10 11 12 13
000
FTUS41 KPHI 302300 RRA
TAFPNE
TAF
KPNE 302341Z 3100/3124 16006KT P6SM BKN040
     FM310700 20005KT P6SM BKN015 BKN035
     FM311000 20004KT 4SM BR BKN009 OVC015
     FM311400 22006KT P6SM BKN020 BKN035
     FM311600 23008G16KT P6SM VCSH BKN035 BKN100
     FM312300 23010KT P6SM SHRA SCT025 BKN035=

USA.gov is the U.S. government's official web portal to all federal, state and local government web resources and services.